createdAt,value
2018-12-11T00:01:30.890Z,12.50
2018-12-11T00:04:02.985Z,12.60
2018-12-11T00:06:32.690Z,12.60
2018-12-11T00:09:03.043Z,12.60
2018-12-11T00:11:34.104Z,12.60
2018-12-11T00:14:04.623Z,12.50
2018-12-11T00:16:34.633Z,12.40
2018-12-11T00:19:04.747Z,12.30
2018-12-11T00:21:34.703Z,12.30
2018-12-11T00:24:04.639Z,12.40
2018-12-11T00:26:35.005Z,12.50
2018-12-11T00:29:11.639Z,12.50
2018-12-11T00:31:41.849Z,12.50
2018-12-11T00:34:11.934Z,12.50
2018-12-11T00:36:42.264Z,12.50
2018-12-11T00:39:12.336Z,12.40
2018-12-11T00:41:42.578Z,12.40
2018-12-11T00:44:12.522Z,12.30
2018-12-11T00:46:42.440Z,12.20
2018-12-11T00:49:15.358Z,12.30
2018-12-11T00:51:45.369Z,12.30
2018-12-11T00:54:15.339Z,12.30
2018-12-11T00:56:45.609Z,12.30
2018-12-11T00:59:15.890Z,12.30
2018-12-11T01:01:46.147Z,12.20
2018-12-11T01:04:17.050Z,12.10
2018-12-11T01:06:46.944Z,12.20
2018-12-11T01:09:16.977Z,12.10
2018-12-11T01:11:46.907Z,12.10
2018-12-11T01:14:16.861Z,12.10
2018-12-11T01:16:46.908Z,12.10
2018-12-11T01:19:16.889Z,12.10
2018-12-11T01:21:46.858Z,12.10
2018-12-11T01:24:21.953Z,12.10
2018-12-11T01:26:52.053Z,12.10
2018-12-11T01:29:21.652Z,12.00
2018-12-11T01:31:52.608Z,12.10
2018-12-11T01:34:22.225Z,12.00
2018-12-11T01:36:52.075Z,12.00
2018-12-11T01:39:21.795Z,12.00
2018-12-11T01:41:51.655Z,12.00
2018-12-11T01:44:21.215Z,11.90
2018-12-11T01:46:51.373Z,11.90
2018-12-11T01:49:27.837Z,12.00
2018-12-11T01:51:57.889Z,12.10
2018-12-11T01:54:27.692Z,12.20
2018-12-11T01:56:57.883Z,12.20
2018-12-11T01:59:27.731Z,12.10
2018-12-11T02:02:02.748Z,12.10
2018-12-11T02:04:32.756Z,12.10
2018-12-11T02:07:02.728Z,12.00
2018-12-11T02:09:32.373Z,12.00
2018-12-11T02:12:02.436Z,12.00
2018-12-11T02:14:31.953Z,12.00
2018-12-11T02:17:01.990Z,12.10
2018-12-11T02:19:32.450Z,12.20
2018-12-11T02:22:02.684Z,12.20
2018-12-11T02:24:33.727Z,12.10
2018-12-11T02:27:04.954Z,12.10
2018-12-11T02:29:51.225Z,12.20
2018-12-11T02:32:20.881Z,12.20
2018-12-11T02:34:50.991Z,12.10
2018-12-11T02:37:21.074Z,12.20
2018-12-11T02:39:51.216Z,12.10
2018-12-11T02:42:21.255Z,12.00
2018-12-11T02:44:51.493Z,12.10
2018-12-11T02:47:21.106Z,12.10
2018-12-11T02:49:51.078Z,12.20
2018-12-11T02:52:20.885Z,12.00
2018-12-11T02:54:50.898Z,12.00
2018-12-11T02:57:20.789Z,12.00
2018-12-11T02:59:50.916Z,12.00
2018-12-11T03:02:20.745Z,11.90
2018-12-11T03:04:50.724Z,12.00
2018-12-11T03:07:24.360Z,11.90
2018-12-11T03:09:54.254Z,12.00
2018-12-11T03:12:24.021Z,12.00
2018-12-11T03:14:54.060Z,12.10
2018-12-11T03:17:24.075Z,12.00
2018-12-11T03:20:02.214Z,11.90
2018-12-11T03:22:32.152Z,11.80
2018-12-11T03:25:02.260Z,11.90
2018-12-11T03:27:34.532Z,11.90
2018-12-11T03:30:05.785Z,11.90
2018-12-11T03:32:37.095Z,12.00
2018-12-11T03:35:07.128Z,12.00
2018-12-11T03:37:37.280Z,12.00
2018-12-11T03:42:44.693Z,11.90
2018-12-11T03:45:14.609Z,11.80
2018-12-11T03:47:44.496Z,11.70
2018-12-11T03:50:14.715Z,11.70
2018-12-11T03:52:44.738Z,11.60
2018-12-11T03:55:14.695Z,11.60
2018-12-11T03:57:48.054Z,11.60
2018-12-11T04:00:22.294Z,11.70
2018-12-11T04:02:52.383Z,11.60
2018-12-11T04:05:21.870Z,11.60
2018-12-11T04:07:51.753Z,11.60
2018-12-11T04:10:21.408Z,11.60
2018-12-11T04:12:51.745Z,11.60
2018-12-11T04:15:21.288Z,11.60
2018-12-11T04:17:51.378Z,11.70
2018-12-11T04:20:22.330Z,11.60
2018-12-11T04:23:07.863Z,11.60
2018-12-11T04:25:37.861Z,11.50
2018-12-11T04:28:07.898Z,11.50
2018-12-11T04:30:42.393Z,11.60
2018-12-11T04:33:12.103Z,11.60
2018-12-11T04:35:51.440Z,11.60
2018-12-11T04:38:21.025Z,11.60
2018-12-11T04:40:50.933Z,11.70
2018-12-11T04:43:20.988Z,11.80
2018-12-11T04:45:50.836Z,11.90
2018-12-11T04:48:20.428Z,11.80
2018-12-11T04:50:50.324Z,11.70
2018-12-11T04:53:19.956Z,11.70
2018-12-11T04:55:49.991Z,11.60
2018-12-11T04:58:21.198Z,11.50
2018-12-11T05:00:51.823Z,11.50
2018-12-11T05:03:21.679Z,11.50
2018-12-11T05:05:51.680Z,11.50
2018-12-11T05:08:21.858Z,11.60
2018-12-11T05:10:51.806Z,11.60
2018-12-11T05:13:21.366Z,11.50
2018-12-11T05:15:51.319Z,11.50
2018-12-11T05:18:31.245Z,11.40
2018-12-11T05:21:01.146Z,11.30
2018-12-11T05:23:31.314Z,11.20
2018-12-11T05:26:01.531Z,11.10
2018-12-11T05:28:31.283Z,11.00
2018-12-11T05:31:04.084Z,11.10
2018-12-11T05:33:33.971Z,11.10
2018-12-11T05:36:03.907Z,10.80
2018-12-11T05:38:33.765Z,10.70
2018-12-11T05:41:04.006Z,10.70
2018-12-11T05:43:38.411Z,10.60
2018-12-11T05:46:08.477Z,10.70
2018-12-11T05:48:38.319Z,10.70
2018-12-11T05:51:08.149Z,10.70
2018-12-11T05:53:38.216Z,10.70
2018-12-11T05:56:08.232Z,10.70
2018-12-11T05:58:38.401Z,10.70
2018-12-11T06:01:09.873Z,10.70
2018-12-11T06:03:40.318Z,10.60
2018-12-11T06:06:10.642Z,10.60
2018-12-11T06:08:40.755Z,10.60
2018-12-11T06:11:11.051Z,10.60
2018-12-11T06:13:41.177Z,10.70
2018-12-11T06:16:11.411Z,10.70
2018-12-11T06:18:41.456Z,10.80
2018-12-11T06:21:11.579Z,10.80
2018-12-11T06:23:48.110Z,10.80
2018-12-11T06:26:17.976Z,10.80
2018-12-11T06:28:54.307Z,10.70
2018-12-11T06:31:24.442Z,10.70
2018-12-11T06:33:54.494Z,10.70
2018-12-11T06:36:30.279Z,10.70
2018-12-11T06:39:00.193Z,10.70
2018-12-11T06:41:37.250Z,10.70
2018-12-11T06:44:07.394Z,10.70
2018-12-11T06:46:37.426Z,10.80
2018-12-11T06:49:07.545Z,10.90
2018-12-11T06:51:37.391Z,10.90
2018-12-11T06:54:07.285Z,11.00
2018-12-11T06:56:40.318Z,11.00
2018-12-11T07:02:03.536Z,11.00
2018-12-11T07:04:33.640Z,11.00
2018-12-11T07:07:03.736Z,11.10
2018-12-11T07:09:33.985Z,11.20
2018-12-11T07:12:04.257Z,11.10
2018-12-11T07:14:38.124Z,11.10
2018-12-11T07:17:07.998Z,11.10
2018-12-11T07:19:38.157Z,11.00
2018-12-11T07:22:08.535Z,11.10
2018-12-11T07:24:38.828Z,11.10
2018-12-11T07:27:12.085Z,11.20
2018-12-11T07:29:42.379Z,11.20
2018-12-11T07:32:12.281Z,11.20
2018-12-11T07:34:42.431Z,11.40
2018-12-11T07:37:12.426Z,11.40
2018-12-11T07:39:42.625Z,11.40
2018-12-11T07:42:13.070Z,11.30
2018-12-11T07:44:42.938Z,11.40
2018-12-11T07:47:20.440Z,11.30
2018-12-11T07:49:50.623Z,11.30
2018-12-11T07:52:20.472Z,11.40
2018-12-11T07:54:50.821Z,11.50
2018-12-11T07:57:20.826Z,11.40
2018-12-11T07:59:51.463Z,11.50
2018-12-11T08:02:21.288Z,11.60
2018-12-11T08:04:51.516Z,11.70
2018-12-11T08:07:21.183Z,11.80
2018-12-11T08:09:51.379Z,11.80
2018-12-11T08:12:21.127Z,11.70
2018-12-11T08:14:55.121Z,11.70
2018-12-11T08:17:24.993Z,11.80
2018-12-11T08:20:00.040Z,11.80
2018-12-11T08:22:29.929Z,11.90
2018-12-11T08:25:00.057Z,12.00
2018-12-11T08:27:30.490Z,12.10
2018-12-11T08:30:01.301Z,12.10
2018-12-11T08:32:48.208Z,12.00
2018-12-11T08:35:18.262Z,12.20
2018-12-11T08:37:48.076Z,12.30
2018-12-11T08:40:23.061Z,12.30
2018-12-11T08:42:53.400Z,12.40
2018-12-11T08:45:23.284Z,12.40
2018-12-11T08:47:53.308Z,12.40
2018-12-11T08:50:22.996Z,12.30
2018-12-11T08:52:53.218Z,12.30
2018-12-11T08:55:22.880Z,12.40
2018-12-11T08:57:53.074Z,12.50
2018-12-11T09:00:46.259Z,12.50
2018-12-11T09:03:16.352Z,12.60
2018-12-11T09:08:24.876Z,12.70
2018-12-11T09:10:55.036Z,12.60
2018-12-11T09:13:24.688Z,12.70
2018-12-11T09:15:54.899Z,12.70
2018-12-11T09:18:25.814Z,12.80
2018-12-11T09:21:02.095Z,12.70
2018-12-11T09:23:32.394Z,12.80
2018-12-11T09:26:06.302Z,12.90
2018-12-11T09:28:37.583Z,12.90
2018-12-11T09:31:07.822Z,13.00
2018-12-11T09:33:37.986Z,13.10
2018-12-11T09:36:22.462Z,13.10
2018-12-11T09:38:59.666Z,13.30
2018-12-11T09:41:29.565Z,13.30
2018-12-11T09:43:59.485Z,13.40
2018-12-11T09:46:29.192Z,13.40
2018-12-11T09:48:59.416Z,13.50
2018-12-11T09:51:29.109Z,13.50
2018-12-11T09:53:59.640Z,13.60
2018-12-11T09:56:29.401Z,13.50
2018-12-11T09:59:11.039Z,13.50
2018-12-11T10:01:41.286Z,13.50
2018-12-11T10:04:11.485Z,13.60
2018-12-11T10:06:41.615Z,13.60
2018-12-11T10:09:11.671Z,13.50
2018-12-11T10:11:46.846Z,16.10
2018-12-11T10:14:17.258Z,13.50
2018-12-11T10:16:47.644Z,13.40
2018-12-11T10:19:17.885Z,13.50
2018-12-11T10:21:48.141Z,13.60
2018-12-11T10:24:20.891Z,13.70
2018-12-11T10:26:52.398Z,13.70
2018-12-11T10:29:22.212Z,13.80
2018-12-11T10:31:55.800Z,13.90
2018-12-11T10:34:25.538Z,14.00
2018-12-11T10:37:02.496Z,14.00
2018-12-11T10:39:32.516Z,14.10
2018-12-11T10:42:02.735Z,14.30
2018-12-11T10:44:32.577Z,14.30
2018-12-11T10:47:02.503Z,14.40
2018-12-11T10:49:32.250Z,14.30
2018-12-11T10:52:02.632Z,14.10
2018-12-11T10:54:32.847Z,14.10
2018-12-11T10:57:02.944Z,14.00
2018-12-11T10:59:33.078Z,13.80
2018-12-11T11:02:09.187Z,13.90
2018-12-11T11:04:40.083Z,13.90
2018-12-11T11:07:22.585Z,13.90
2018-12-11T11:09:52.890Z,14.10
2018-12-11T11:12:22.966Z,14.10
2018-12-11T11:14:53.014Z,14.20
2018-12-11T11:17:23.171Z,14.20
2018-12-11T11:19:53.159Z,14.00
2018-12-11T11:22:23.080Z,14.20
2018-12-11T11:24:53.194Z,14.10
2018-12-11T11:27:32.943Z,14.20
2018-12-11T11:30:03.078Z,14.20
2018-12-11T11:32:33.546Z,14.30
2018-12-11T11:35:03.814Z,14.40
2018-12-11T11:37:34.000Z,12.30
2018-12-11T11:40:04.259Z,14.40
2018-12-11T11:42:34.743Z,14.40
2018-12-11T11:45:05.461Z,14.50
2018-12-11T11:47:35.926Z,14.40
2018-12-11T11:50:08.560Z,14.60
2018-12-11T11:52:45.808Z,14.60
2018-12-11T11:55:15.962Z,14.70
2018-12-11T11:57:49.539Z,14.80
2018-12-11T12:00:20.056Z,14.80
2018-12-11T12:02:50.135Z,14.90
2018-12-11T12:05:22.145Z,14.80
2018-12-11T12:07:52.273Z,14.70
2018-12-11T12:10:24.053Z,14.70
2018-12-11T12:12:54.259Z,14.70
2018-12-11T12:15:24.334Z,14.80
2018-12-11T12:17:54.915Z,14.80
2018-12-11T12:20:25.399Z,14.80
2018-12-11T12:22:55.910Z,14.80
2018-12-11T12:25:26.078Z,14.70
2018-12-11T12:27:56.016Z,14.70
2018-12-11T12:30:27.317Z,14.70
2018-12-11T12:32:57.379Z,14.60
2018-12-11T12:35:27.527Z,14.70
2018-12-11T12:37:57.801Z,14.70
2018-12-11T12:40:27.426Z,14.60
2018-12-11T12:42:57.426Z,14.60
2018-12-11T12:45:27.215Z,14.70
2018-12-11T12:47:57.365Z,14.90
2018-12-11T12:50:27.445Z,15.10
2018-12-11T12:52:57.550Z,15.10
2018-12-11T12:55:27.236Z,15.20
2018-12-11T12:57:57.093Z,15.20
2018-12-11T13:00:28.442Z,15.10
2018-12-11T13:02:58.494Z,15.00
2018-12-11T13:05:28.272Z,15.10
2018-12-11T13:07:59.446Z,15.20
2018-12-11T13:10:44.184Z,15.30
2018-12-11T13:13:14.160Z,15.00
2018-12-11T13:15:53.322Z,15.10
2018-12-11T13:18:23.448Z,15.10
2018-12-11T13:20:58.293Z,15.00
2018-12-11T13:23:28.158Z,15.00
2018-12-11T13:25:58.332Z,15.00
2018-12-11T13:28:28.837Z,15.00
2018-12-11T13:30:59.405Z,15.10
2018-12-11T13:33:29.540Z,15.00
2018-12-11T13:36:00.171Z,15.00
2018-12-11T13:38:29.926Z,15.00
2018-12-11T13:41:00.103Z,15.10
2018-12-11T13:43:34.202Z,15.00
2018-12-11T13:46:04.434Z,15.10
2018-12-11T13:48:34.262Z,15.10
2018-12-11T13:51:04.663Z,15.20
2018-12-11T13:53:34.963Z,15.10
2018-12-11T13:56:05.041Z,14.80
2018-12-11T13:58:34.909Z,14.90
2018-12-11T14:01:04.975Z,15.00
2018-12-11T14:03:35.022Z,15.00
2018-12-11T14:06:05.241Z,15.00
2018-12-11T14:08:35.439Z,15.10
2018-12-11T14:11:05.823Z,15.20
2018-12-11T14:13:35.972Z,15.10
2018-12-11T14:16:06.153Z,14.80
2018-12-11T14:18:40.897Z,14.90
2018-12-11T14:21:12.350Z,15.00
2018-12-11T14:23:43.620Z,15.10
2018-12-11T14:26:13.944Z,14.80
2018-12-11T14:28:46.076Z,15.30
2018-12-11T14:31:46.381Z,14.80
2018-12-11T14:34:16.592Z,14.80
2018-12-11T14:36:46.694Z,15.10
2018-12-11T14:39:19.677Z,15.20
2018-12-11T14:41:49.964Z,15.10
2018-12-11T14:44:26.152Z,15.00
2018-12-11T14:46:56.270Z,15.10
2018-12-11T14:49:26.016Z,15.10
2018-12-11T14:51:57.118Z,15.10
2018-12-11T14:54:26.923Z,15.10
2018-12-11T14:56:57.564Z,15.00
2018-12-11T14:59:27.389Z,15.00
2018-12-11T15:01:57.484Z,14.90
2018-12-11T15:04:27.166Z,15.00
2018-12-11T15:06:57.281Z,15.00
2018-12-11T15:09:32.370Z,14.90
2018-12-11T15:12:02.279Z,14.70
2018-12-11T15:14:32.183Z,14.60
2018-12-11T15:17:02.386Z,14.80
2018-12-11T15:19:32.631Z,14.90
2018-12-11T15:22:02.851Z,14.90
2018-12-11T15:24:33.839Z,14.80
2018-12-11T15:27:04.315Z,14.70
2018-12-11T15:29:36.749Z,14.60
2018-12-11T15:32:07.031Z,14.50
2018-12-11T15:34:37.446Z,14.40
2018-12-11T15:37:07.591Z,14.50
2018-12-11T15:39:41.481Z,14.40
2018-12-11T15:42:11.353Z,14.40
2018-12-11T15:44:41.672Z,14.40
2018-12-11T15:47:12.316Z,14.40
2018-12-11T15:49:42.413Z,14.10
2018-12-11T15:52:12.539Z,14.00
2018-12-11T15:54:47.544Z,14.00
2018-12-11T15:57:24.498Z,14.00
2018-12-11T15:59:54.829Z,14.10
2018-12-11T16:02:24.961Z,14.10
2018-12-11T16:04:55.059Z,14.10
2018-12-11T16:07:25.490Z,14.00
2018-12-11T16:09:56.479Z,14.00
2018-12-11T16:12:26.455Z,14.00
2018-12-11T16:14:56.836Z,14.10
2018-12-11T16:17:26.728Z,14.20
2018-12-11T16:19:56.954Z,14.10
2018-12-11T16:22:27.143Z,14.00
2018-12-11T16:24:57.839Z,14.00
2018-12-11T16:27:28.310Z,14.00
2018-12-11T16:29:58.541Z,14.00
2018-12-11T16:32:28.505Z,13.90
2018-12-11T16:34:59.124Z,13.90
2018-12-11T16:37:29.027Z,13.80
2018-12-11T16:40:10.085Z,13.80
2018-12-11T16:42:43.501Z,13.80
2018-12-11T16:45:13.924Z,13.80
2018-12-11T16:47:45.717Z,13.80
2018-12-11T16:50:16.142Z,13.80
2018-12-11T16:52:46.266Z,13.70
2018-12-11T16:55:16.392Z,13.70
2018-12-11T16:57:47.558Z,13.70
2018-12-11T17:00:17.828Z,13.70
2018-12-11T17:02:48.066Z,13.70
2018-12-11T17:05:19.015Z,13.70
2018-12-11T17:07:49.228Z,13.70
2018-12-11T17:10:19.620Z,13.70
2018-12-11T17:12:49.739Z,13.70
2018-12-11T17:15:26.719Z,13.70
2018-12-11T17:17:57.004Z,13.70
2018-12-11T17:20:27.227Z,13.70
2018-12-11T17:22:57.228Z,13.70
2018-12-11T17:25:27.025Z,13.60
2018-12-11T17:27:58.314Z,13.60
2018-12-11T17:30:27.950Z,13.60
2018-12-11T17:35:28.149Z,13.40
2018-12-11T17:37:58.360Z,13.50
2018-12-11T17:42:52.860Z,13.40
2018-12-11T17:45:22.833Z,13.40
2018-12-11T17:47:53.684Z,13.40
2018-12-11T17:50:24.366Z,13.50
2018-12-11T17:52:56.130Z,13.50
2018-12-11T17:55:26.322Z,13.50
2018-12-11T17:57:56.378Z,13.40
2018-12-11T18:00:33.985Z,13.40
2018-12-11T18:03:04.232Z,16.00
2018-12-11T18:05:34.078Z,13.30
2018-12-11T18:08:04.105Z,13.30
2018-12-11T18:10:34.239Z,13.30
2018-12-11T18:13:05.822Z,13.30
2018-12-11T18:15:35.862Z,13.30
2018-12-11T18:18:06.440Z,13.20
2018-12-11T18:20:37.033Z,13.20
2018-12-11T18:23:07.340Z,13.20
2018-12-11T18:25:37.781Z,13.20
2018-12-11T18:28:07.871Z,13.20
2018-12-11T18:30:42.503Z,13.20
2018-12-11T18:33:12.583Z,13.20
2018-12-11T18:35:42.675Z,13.20
2018-12-11T18:38:13.596Z,13.20
2018-12-11T18:40:43.663Z,13.20
2018-12-11T18:43:14.190Z,13.20
2018-12-11T18:45:44.450Z,13.20
2018-12-11T18:48:22.625Z,13.20
2018-12-11T18:50:53.364Z,13.20
2018-12-11T18:53:23.587Z,13.20
2018-12-11T18:55:53.524Z,13.20
2018-12-11T18:58:24.717Z,13.20
2018-12-11T19:00:55.281Z,13.30
2018-12-11T19:03:25.168Z,13.30
2018-12-11T19:05:55.298Z,13.30
2018-12-11T19:08:37.476Z,13.30
2018-12-11T19:11:12.185Z,13.30
2018-12-11T19:17:29.968Z,13.30
2018-12-11T19:23:03.720Z,13.30
2018-12-11T19:25:42.633Z,13.30
2018-12-11T19:28:13.423Z,13.30
2018-12-11T19:30:43.468Z,13.30
2018-12-11T19:33:15.834Z,13.30
2018-12-11T19:35:46.172Z,13.20
2018-12-11T19:38:17.199Z,13.20
2018-12-11T19:40:48.013Z,13.20
2018-12-11T19:43:18.089Z,13.20
2018-12-11T19:45:48.486Z,13.20
2018-12-11T19:48:18.566Z,13.20
2018-12-11T19:50:49.175Z,13.20
2018-12-11T19:53:19.240Z,13.20
2018-12-11T19:55:49.250Z,13.20
2018-12-11T19:58:20.483Z,13.20
2018-12-11T20:00:50.728Z,13.20
2018-12-11T20:03:20.630Z,13.10
2018-12-11T20:05:50.733Z,13.10
2018-12-11T20:08:21.233Z,13.10
2018-12-11T20:10:53.753Z,13.00
2018-12-11T20:13:23.929Z,13.00
2018-12-11T20:15:54.332Z,13.00
2018-12-11T20:18:24.166Z,13.00
2018-12-11T20:20:54.244Z,12.90
2018-12-11T20:23:24.491Z,12.80
2018-12-11T20:25:54.744Z,12.70
2018-12-11T20:28:25.330Z,12.70
2018-12-11T20:30:55.543Z,12.70
2018-12-11T20:33:25.403Z,12.70
2018-12-11T20:35:55.671Z,12.70
2018-12-11T20:38:25.681Z,12.70
2018-12-11T20:40:55.569Z,12.60
2018-12-11T20:43:26.567Z,12.70
2018-12-11T20:45:56.702Z,12.60
2018-12-11T20:48:26.727Z,12.60
2018-12-11T20:50:57.116Z,12.60
2018-12-11T20:53:26.957Z,12.60
2018-12-11T20:55:56.993Z,12.70
2018-12-11T20:58:27.074Z,12.70
2018-12-11T21:00:58.067Z,12.80
2018-12-11T21:03:27.900Z,12.80
2018-12-11T21:05:58.004Z,12.70
2018-12-11T21:08:29.346Z,12.70
2018-12-11T21:10:59.346Z,12.80
2018-12-11T21:13:29.586Z,12.80
2018-12-11T21:15:59.343Z,12.80
2018-12-11T21:18:28.956Z,12.80
2018-12-11T21:20:58.787Z,12.90
2018-12-11T21:23:29.276Z,12.80
2018-12-11T21:25:59.114Z,14.10
2018-12-11T21:28:29.133Z,12.80
2018-12-11T21:30:59.391Z,12.80
2018-12-11T21:36:11.575Z,13.00
2018-12-11T21:38:41.459Z,15.70
2018-12-11T21:41:11.556Z,12.80
2018-12-11T21:43:41.800Z,12.80
2018-12-11T21:46:11.695Z,12.80
2018-12-11T21:48:42.027Z,12.80
2018-12-11T21:51:12.007Z,12.90
2018-12-11T21:53:42.187Z,12.80
2018-12-11T21:56:12.352Z,12.80
2018-12-11T21:58:42.272Z,12.90
2018-12-11T22:01:12.036Z,12.90
2018-12-11T22:03:42.485Z,12.90
2018-12-11T22:06:12.876Z,13.00
2018-12-11T22:08:42.798Z,13.00
2018-12-11T22:11:12.825Z,13.10
2018-12-11T22:13:42.631Z,13.20
2018-12-11T22:16:12.637Z,13.20
2018-12-11T22:18:43.008Z,13.10
2018-12-11T22:21:15.784Z,13.10
2018-12-11T22:23:50.833Z,13.00
2018-12-11T22:26:20.785Z,12.90
2018-12-11T22:28:50.792Z,13.00
2018-12-11T22:31:21.049Z,13.00
2018-12-11T22:33:51.231Z,13.00
2018-12-11T22:36:21.328Z,13.00
2018-12-11T22:38:51.429Z,12.80
2018-12-11T22:41:21.426Z,12.70
2018-12-11T22:43:51.386Z,12.70
2018-12-11T22:46:21.477Z,12.80
2018-12-11T22:48:52.390Z,12.80
2018-12-11T22:51:24.261Z,12.70
2018-12-11T22:53:53.965Z,12.70
2018-12-11T22:56:23.471Z,12.70
2018-12-11T22:58:53.319Z,12.60
2018-12-11T23:01:23.358Z,12.60
2018-12-11T23:03:54.331Z,12.60
2018-12-11T23:06:24.032Z,12.60
2018-12-11T23:08:54.357Z,12.60
2018-12-11T23:11:24.219Z,12.50
2018-12-11T23:13:54.274Z,12.50
2018-12-11T23:16:25.379Z,12.40
2018-12-11T23:18:56.068Z,12.50
2018-12-11T23:21:27.621Z,12.50
2018-12-11T23:23:58.185Z,12.40
2018-12-11T23:26:27.744Z,12.40
2018-12-11T23:28:57.589Z,12.30
2018-12-11T23:31:30.338Z,12.40
2018-12-11T23:34:00.548Z,12.30
2018-12-11T23:40:20.508Z,12.10
2018-12-11T23:42:59.329Z,12.10
2018-12-11T23:45:29.343Z,12.10
2018-12-11T23:47:59.429Z,12.10
2018-12-11T23:50:29.032Z,12.20
2018-12-11T23:52:58.939Z,12.00
2018-12-11T23:55:28.563Z,11.90
2018-12-11T23:57:58.518Z,11.90
